Tiszta égbolt néhány alacsony felhővel
Tiszta égbolt néhány alacsony felhővel
Tiszta égbolt néhány alacsony felhővel
Tiszta égbolt néhány alacsony felhővel
Részlegesen felhős égbolt
Részlegesen felhős égbolt
Részlegesen felhős égbolt
(°C)
18°
18°
17°
17°
17°
17°
17°
17°
16°
16°
16°
16°
16°
16°
(°C)
16°
16°
15°
16°
16°
16°
16°
NÉN
NÉN
NÉN
NÉN
NÉN
ÉNy
ÉNy
(km/h)
13-22
11-21
10-19
8-17
7-15
6-13
5-11
(mm)
0
0
0
0
0
0
0
(%)
0
0
0
0
0
0
0

Napfelkelte

/ 31.9°
sun-icon
UV 9
05:42
19:49
Hold (fogyó félhold) (216°)
23:21
08:09

METAR San Diego (KSAN)-ért

Idő Feltételek Hőmérséklet/
Harmatpont
Szél Látási viszonyok Időjárás Felhők Légnyomás Módosítás Nyers
VFR 18.3°C / 11.7°C 270º 8kt Gust 15kt >10km - Few Clouds 2200ft 1016 - KSAN 262351Z 27008G15KT 10SM FEW022 18/12 A3002 RMK AO2 SLP165 T01830117 10194 20161 58009 $
VFR 18.9°C / 11.7°C 6kt >10km - Few Clouds 2300ft 1016 - KSAN 262251Z VRB06KT 10SM FEW023 19/12 A3003 RMK AO2 SLP169 T01890117 $
VFR 18.3°C / 11.7°C 6kt >10km - Scattered Clouds 2200ft 1017 - KSAN 262151Z VRB06KT 10SM SCT022 18/12 A3004 RMK AO2 SLP173 T01830117 $
VFR 18.3°C / 11.7°C 260º 8kt >10km - Scattered Clouds 2200ft - KSAN 262141Z 26008KT 10SM SCT022 18/12 A3004 RMK AO2 T01830117 $
MVFR 17.8°C / 11.7°C 260º 7kt Gust 19kt >10km - Broken Clouds 2100ft 1017 - KSAN 262051Z 26007G19KT 10SM BKN021 18/12 A3005 RMK AO2 SLP175 T01780117 58006 $
MVFR 17.8°C / 11.7°C 270º 8kt >10km - Overcast 2000ft 1017 - KSAN 261951Z 27008KT 10SM OVC020 18/12 A3006 RMK AO2 SLP178 T01780117 $
MVFR 16.7°C / 11.7°C 250º 7kt >10km - Overcast 1700ft 1018 - KSAN 261851Z 25007KT 10SM OVC017 17/12 A3007 RMK AO2 SLP183 T01670117 $
MVFR 16.1°C / 11.7°C 260º 6kt >10km - Overcast 1700ft 1018 - KSAN 261751Z 26006KT 10SM OVC017 16/12 A3007 RMK AO2 SLP180 T01610117 10167 20161 51006 $
MVFR 16.1°C / 11.7°C 270º 5kt >10km - Overcast 2200ft 1017 - KSAN 261651Z 27005KT 10SM OVC022 16/12 A3006 RMK AO2 SLP178 T01610117 $
MVFR 16.1°C / 11.7°C 250º 7kt >10km - Overcast 2400ft 1017 - KSAN 261551Z 25007KT 10SM OVC024 16/12 A3006 RMK AO2 SLP178 T01610117 $
MVFR 16.7°C / 10.6°C variable 0kt >10km - Overcast 2300ft 1017 - KSAN 261451Z 00000KT 10SM OVC023 17/11 A3005 RMK AO2 SLP174 T01670106 53012 $
MVFR 16.1°C / 10.6°C 20º 3kt >10km - Overcast 2500ft 1017 - KSAN 261351Z 02003KT 10SM OVC025 16/11 A3004 RMK AO2 SLP170 T01610106 $
MVFR 16.1°C / 11.1°C 10º 3kt >10km - Overcast 2200ft 1016 - KSAN 261251Z 01003KT 10SM OVC022 16/11 A3002 RMK AO2 SLP164 T01610111 $
MVFR 16.1°C / 10.6°C variable 0kt >10km - Overcast 2200ft 1016 - KSAN 261151Z 00000KT 10SM OVC022 16/11 A3001 RMK AO2 SLP162 70003 T01610106 10161 20156 55003 $
MVFR 15.6°C / 10.6°C 300º 4kt >10km - Overcast 2200ft 1016 - KSAN 261051Z 30004KT 10SM OVC022 16/11 A3001 RMK AO2 SLP160 T01560106 $
MVFR 16.1°C / 10.6°C 360º 3kt >10km - Overcast 2100ft 1016 - KSAN 260951Z 36003KT 10SM OVC021 16/11 A3001 RMK AO2 SLP162 T01610106 $
MVFR 16.1°C / 10.6°C 60º 4kt >10km - Overcast 2100ft 1016 - KSAN 260851Z 06004KT 10SM OVC021 16/11 A3002 RMK AO2 SLP165 T01610106 57007 $
MVFR 16.1°C / 11.1°C variable 0kt >10km - Overcast 1900ft 1016 - KSAN 260751Z 00000KT 10SM OVC019 16/11 A3003 RMK AO2 SLP167 T01610111 401830139 $
MVFR 15.6°C / 11.1°C variable 0kt >10km - Overcast 2000ft 1017 - KSAN 260651Z 00000KT 10SM OVC020 16/11 A3003 RMK AO2 SLP170 T01560111 $
MVFR 15.6°C / 11.1°C 350º 3kt >10km - Overcast 2000ft 1017 - KSAN 260551Z 35003KT 10SM OVC020 16/11 A3004 RMK AO2 SLP172 T01560111 10172 20156 51008 $
MVFR 15.6°C / 10.6°C variable 0kt >10km - Overcast 2000ft 1017 - KSAN 260451Z 00000KT 10SM OVC020 16/11 A3004 RMK AO2 SLP171 T01560106 $
MVFR 15.6°C / 10.6°C 340º 4kt >10km - Overcast 2000ft 1016 - KSAN 260351Z 34004KT 10SM OVC020 16/11 A3002 RMK AO2 SLP166 T01560106 $
MVFR 16.1°C / 11.1°C variable 0kt >10km - Overcast 2000ft 1016 - KSAN 260251Z 00000KT 10SM OVC020 16/11 A3002 RMK AO2 SLP164 T01610111 55002 $
MVFR 16.7°C / 11.1°C 280º 7kt >10km - Overcast 2000ft 1016 - KSAN 260151Z 28007KT 10SM OVC020 17/11 A3001 RMK AO2 SLP163 T01670111 $

VFR

18.3°C / 11.7°C

[Több]
Szél 270º 8kt Gust 15kt
Látási viszonyok >10km
Időjárás -
Felhők Few Clouds 2200ft
Légnyomás 1016
Módosítás -
Nyers KSAN 262351Z 27008G15KT 10SM FEW022 18/12 A3002 RMK AO2 SLP165 T01830117 10194 20161 58009 $

VFR

18.9°C / 11.7°C

[Több]
Szél 6kt
Látási viszonyok >10km
Időjárás -
Felhők Few Clouds 2300ft
Légnyomás 1016
Módosítás -
Nyers KSAN 262251Z VRB06KT 10SM FEW023 19/12 A3003 RMK AO2 SLP169 T01890117 $

VFR

18.3°C / 11.7°C

[Több]
Szél 6kt
Látási viszonyok >10km
Időjárás -
Felhők Scattered Clouds 2200ft
Légnyomás 1017
Módosítás -
Nyers KSAN 262151Z VRB06KT 10SM SCT022 18/12 A3004 RMK AO2 SLP173 T01830117 $

VFR

18.3°C / 11.7°C

[Több]
Szél 260º 8kt
Látási viszonyok >10km
Időjárás -
Felhők Scattered Clouds 2200ft
Légnyomás
Módosítás -
Nyers KSAN 262141Z 26008KT 10SM SCT022 18/12 A3004 RMK AO2 T01830117 $

MVFR

17.8°C / 11.7°C

[Több]
Szél 260º 7kt Gust 19kt
Látási viszonyok >10km
Időjárás -
Felhők Broken Clouds 2100ft
Légnyomás 1017
Módosítás -
Nyers KSAN 262051Z 26007G19KT 10SM BKN021 18/12 A3005 RMK AO2 SLP175 T01780117 58006 $

MVFR

17.8°C / 11.7°C

[Több]
Szél 270º 8kt
Látási viszonyok >10km
Időjárás -
Felhők Overcast 2000ft
Légnyomás 1017
Módosítás -
Nyers KSAN 261951Z 27008KT 10SM OVC020 18/12 A3006 RMK AO2 SLP178 T01780117 $

MVFR

16.7°C / 11.7°C

[Több]
Szél 250º 7kt
Látási viszonyok >10km
Időjárás -
Felhők Overcast 1700ft
Légnyomás 1018
Módosítás -
Nyers KSAN 261851Z 25007KT 10SM OVC017 17/12 A3007 RMK AO2 SLP183 T01670117 $

MVFR

16.1°C / 11.7°C

[Több]
Szél 260º 6kt
Látási viszonyok >10km
Időjárás -
Felhők Overcast 1700ft
Légnyomás 1018
Módosítás -
Nyers KSAN 261751Z 26006KT 10SM OVC017 16/12 A3007 RMK AO2 SLP180 T01610117 10167 20161 51006 $

MVFR

16.1°C / 11.7°C

[Több]
Szél 270º 5kt
Látási viszonyok >10km
Időjárás -
Felhők Overcast 2200ft
Légnyomás 1017
Módosítás -
Nyers KSAN 261651Z 27005KT 10SM OVC022 16/12 A3006 RMK AO2 SLP178 T01610117 $

MVFR

16.1°C / 11.7°C

[Több]
Szél 250º 7kt
Látási viszonyok >10km
Időjárás -
Felhők Overcast 2400ft
Légnyomás 1017
Módosítás -
Nyers KSAN 261551Z 25007KT 10SM OVC024 16/12 A3006 RMK AO2 SLP178 T01610117 $

MVFR

16.7°C / 10.6°C

[Több]
Szél variable 0kt
Látási viszonyok >10km
Időjárás -
Felhők Overcast 2300ft
Légnyomás 1017
Módosítás -
Nyers KSAN 261451Z 00000KT 10SM OVC023 17/11 A3005 RMK AO2 SLP174 T01670106 53012 $

MVFR

16.1°C / 10.6°C

[Több]
Szél 20º 3kt
Látási viszonyok >10km
Időjárás -
Felhők Overcast 2500ft
Légnyomás 1017
Módosítás -
Nyers KSAN 261351Z 02003KT 10SM OVC025 16/11 A3004 RMK AO2 SLP170 T01610106 $

MVFR

16.1°C / 11.1°C

[Több]
Szél 10º 3kt
Látási viszonyok >10km
Időjárás -
Felhők Overcast 2200ft
Légnyomás 1016
Módosítás -
Nyers KSAN 261251Z 01003KT 10SM OVC022 16/11 A3002 RMK AO2 SLP164 T01610111 $

MVFR

16.1°C / 10.6°C

[Több]
Szél variable 0kt
Látási viszonyok >10km
Időjárás -
Felhők Overcast 2200ft
Légnyomás 1016
Módosítás -
Nyers KSAN 261151Z 00000KT 10SM OVC022 16/11 A3001 RMK AO2 SLP162 70003 T01610106 10161 20156 55003 $

MVFR

15.6°C / 10.6°C

[Több]
Szél 300º 4kt
Látási viszonyok >10km
Időjárás -
Felhők Overcast 2200ft
Légnyomás 1016
Módosítás -
Nyers KSAN 261051Z 30004KT 10SM OVC022 16/11 A3001 RMK AO2 SLP160 T01560106 $

MVFR

16.1°C / 10.6°C

[Több]
Szél 360º 3kt
Látási viszonyok >10km
Időjárás -
Felhők Overcast 2100ft
Légnyomás 1016
Módosítás -
Nyers KSAN 260951Z 36003KT 10SM OVC021 16/11 A3001 RMK AO2 SLP162 T01610106 $

MVFR

16.1°C / 10.6°C

[Több]
Szél 60º 4kt
Látási viszonyok >10km
Időjárás -
Felhők Overcast 2100ft
Légnyomás 1016
Módosítás -
Nyers KSAN 260851Z 06004KT 10SM OVC021 16/11 A3002 RMK AO2 SLP165 T01610106 57007 $

MVFR

16.1°C / 11.1°C

[Több]
Szél variable 0kt
Látási viszonyok >10km
Időjárás -
Felhők Overcast 1900ft
Légnyomás 1016
Módosítás -
Nyers KSAN 260751Z 00000KT 10SM OVC019 16/11 A3003 RMK AO2 SLP167 T01610111 401830139 $

MVFR

15.6°C / 11.1°C

[Több]
Szél variable 0kt
Látási viszonyok >10km
Időjárás -
Felhők Overcast 2000ft
Légnyomás 1017
Módosítás -
Nyers KSAN 260651Z 00000KT 10SM OVC020 16/11 A3003 RMK AO2 SLP170 T01560111 $

MVFR

15.6°C / 11.1°C

[Több]
Szél 350º 3kt
Látási viszonyok >10km
Időjárás -
Felhők Overcast 2000ft
Légnyomás 1017
Módosítás -
Nyers KSAN 260551Z 35003KT 10SM OVC020 16/11 A3004 RMK AO2 SLP172 T01560111 10172 20156 51008 $

MVFR

15.6°C / 10.6°C

[Több]
Szél variable 0kt
Látási viszonyok >10km
Időjárás -
Felhők Overcast 2000ft
Légnyomás 1017
Módosítás -
Nyers KSAN 260451Z 00000KT 10SM OVC020 16/11 A3004 RMK AO2 SLP171 T01560106 $

MVFR

15.6°C / 10.6°C

[Több]
Szél 340º 4kt
Látási viszonyok >10km
Időjárás -
Felhők Overcast 2000ft
Légnyomás 1016
Módosítás -
Nyers KSAN 260351Z 34004KT 10SM OVC020 16/11 A3002 RMK AO2 SLP166 T01560106 $

MVFR

16.1°C / 11.1°C

[Több]
Szél variable 0kt
Látási viszonyok >10km
Időjárás -
Felhők Overcast 2000ft
Légnyomás 1016
Módosítás -
Nyers KSAN 260251Z 00000KT 10SM OVC020 16/11 A3002 RMK AO2 SLP164 T01610111 55002 $

MVFR

16.7°C / 11.1°C

[Több]
Szél 280º 7kt
Látási viszonyok >10km
Időjárás -
Felhők Overcast 2000ft
Légnyomás 1016
Módosítás -
Nyers KSAN 260151Z 28007KT 10SM OVC020 17/11 A3001 RMK AO2 SLP163 T01670111 $

TAF San Diego (KSAN)-ért

From till


From till Wind 270º 7kt. Visibility 9700m. Scattered Clouds 2200ft.
From till Wind 290º 6kt. Visibility 9700m. Broken Clouds 2200ft.
From till Wind 4kt. Visibility 9700m. Overcast 1700ft.
From till Wind 290º 10kt. Visibility 9700m. Scattered Clouds 2000ft.
From till Wind 4kt. Visibility 9700m. Broken Clouds 1500ft.

Nyers: KSAN 262339Z 2700/2806 27007KT P6SM SCT022 FM270300 29006KT P6SM BKN022 FM270500 VRB04KT P6SM OVC017 FM271900 29010KT P6SM SCT020 FM280300 VRB04KT P6SM BKN015

rainNOW: Eső előrejelzés San Diego és környéke (25km-es körzetben)

0.0 mm
0.0 mm
0.0 mm
0.0 mm
0.0 mm
0.0 mm
0.0 mm
0.0 mm
0.0 mm
0.0 mm
0.0 mm
0.0 mm

Radarkép és ultrarövid távú csapadék-előrejelzés a következő helyhez: San Diego

Szitáló eső
Enyhe
Mérsékelt
Erős
Nagyon heves
Jégeső

A helyzetjelző helye: San Diego. Ez az animáció a csapadékradart mutatja a kiválasztott időintervallumra, valamint egy 1h előrejelzést. A narancssárga keresztek villámlást jeleznek. Az adatokat nowcast.de szolgáltatta (elérhető az USA-ban, Európában és Ausztráliában). A szitáló eső vagy enyhe hóesés láthatatlan lehet a radar számára. A csapadék intenzitása színkóddal van jelölve, a türkizkéktől a pirosig.

Aktuális műholdas képek ezen a helyen: San Diego, USA

A helyszín jelölő a következő helyen van elhelyezve: San Diego. [Több]

A valós idejű műholdas kép ötvözi a nappali látható fényt az éjszakai infravörös sugárzással. Éjjel a kép nem sötét, mivel az infravörös sugárzás képes érzékelni a hőmérséklet-különbségeket. Sajnos az alacsony felhőket és a ködöt nehéz megkülönböztetni a talaj hőmérsékletétől, így az éjszaka folyamán szinte láthatatlanok lehetnek. A Meteosat európai műholdképei valós időben frissülnek minden 5 percben. A GOES-16/GOES-17 (Észak- és Dél-Amerika) és Himawari (Ázsia) képei 10 percenként frissülnek.

A csapadékmennyiséget radar és műholdak alapján becsülik. A műholdakról származó csapadékbecslések éjszaka kevésbé pontosak, mint nappal.

© 2024 meteoblue, NOAA Satellites GOES-16 and EUMETSAT. nowcast által biztosított villámlással kapcsolatos adatok.

Vissza a tetejére
×
Szia,
úgy tűnik, hogy reklámblokkolót használsz.

A reklámozás elengedhetetlen ahhoz, hogy ingyenes honlapunkat egyedülálló részletességgel és pontossággal tartsuk fenn.

Kérjük, vegye fel a www.meteoblue.com fehérlistára a reklámblokkolóján, vagy fontolja meg valamelyik termékünk megvásárlását:

Már rendelkezik előfizetéssel?
Akkor kérjük, jelentkezzen be.